"WATCHING THE WEATHER TO PROTECT LIFE AND PROPERTY"


THERE ARE CURRENTLY NO WATCHES NOR WARNINGS


Aviation
Satellite (InfraRed)


KFLL 251953Z 21004KT 10SM SCT027 BKN110 28/26 A2995 RMK AO2 LTG DSNT SW AND NW SLP143 T02830261
KMCO 251953Z 06003KT 10SM SCT046 SCT080 SCT250 34/22 A2992 RMK AO2 SLP130 T03390222
KMIA 251953Z 22012G17KT 10SM -TSRA FEW015 SCT025CB BKN040 BKN180 OVC250 28/24 A2995 RMK AO2 LTG DSNT SW RAB41 TSE27B32 SLP143 OCNL LTGICCG SW-W TS SW-W MOV NE CB DSNT NW P0000 T02780239
KTPA 251953Z 25007KT 10SM SCT045TCU SCT230 32/23 A2993 RMK AO2 SLP135 TCU NE-S T03170233
MDPP 251900Z 08015KT 9999 FEW022CB FEW022 33/27 Q1014 CB/W
MDSD 251900Z 17006KT 100V250 9999 SCT020CB FEW022 34/25 Q1014 CB/NE/E/S/SW/NW/N
MKJS 251900Z 06010KT 9999 FEW022 32/26 Q1014
MTPP 251851Z 32009KT 280V350 9000 FEW030CB 34/25 Q1013 A2993 RMK/CB/SE
MUHA 251855Z 23007KT 180V270 9000 BKN040 33/24 Q1015
MYNN 251900Z 18009KT 9999 VCTS SCT018CB BKN200 30/25 A3001 RMK CB SW--N; VCTS SW
TAPA 251900Z 06008KT 020V090 9999 FEW019 31/25 Q1015 NOSIG
TFFF 251930Z AUTO 08008KT 040V100 9999 SCT032/// BKN040/// BKN048/// ///TCU 32/25 Q1013 TEMPO 3000 SHRA BECMG SCT025
TFFR 251930Z AUTO 15006KT 9999 FEW031 SCT050 30/26 Q1013 TEMPO 2500 SHRA SCT015CB BKN018TCU
TIST 251953Z 12007KT 10SM FEW070 31/23 A2996 RMK AO2 SLP146 T03060233
TISX 251953Z 05006KT 10SM SCT028 SCT036 30/26 A2997 RMK AO2 RAE49 SLP148 P0001 T03000261
TJSJ 251856Z 06009KT 10SM SCT021 SCT090 30/26 A2998 RMK AO2 SLP152 VCSH W T03000256
TKPK 251900Z 07012KT 9999 VCSH FEW020 31/25 Q1015
TNCA 251900Z 08015KT 9999 FEW021 31/26 Q1011 NOSIG
TNCB 251855Z 09012KT 050V140 9999 SCT019 BKN023 BKN028 32/25 Q1012
TNCC 251900Z 09011KT 9999 FEW023 32/25 Q1012 NOSIG
TNCE 251855Z AUTO 05010KT 020V080 //// // ///////// 31/25 Q1015 RE//
TNCM 251900Z 06008KT 9999 SCT015TCU 32/23 Q1016 RETS NOSIG RMK SHRA W
TQPF 251900Z 09010KT 9999 FEW017 31/24 Q1016
TUPJ 252000Z 09004KT 10SM VCSH SCT017 29/25 A2998 RMK Q1015 VIS16KM